sensor_id;sensor_type;location;lat;lon;timestamp;temperature;humidity
4749;DHT22;2388;53.582;9.962;2023-02-01T00:02:23;5.90;99.90
4749;DHT22;2388;53.582;9.962;2023-02-01T00:04:48;5.90;99.90
4749;DHT22;2388;53.582;9.962;2023-02-01T00:07:14;5.90;99.90
4749;DHT22;2388;53.582;9.962;2023-02-01T00:09:39;5.90;99.90
4749;DHT22;2388;53.582;9.962;2023-02-01T00:12:05;5.90;99.90
4749;DHT22;2388;53.582;9.962;2023-02-01T00:14:30;5.90;99.90
4749;DHT22;2388;53.582;9.962;2023-02-01T00:17:06;5.90;99.90
4749;DHT22;2388;53.582;9.962;2023-02-01T00:19:32;5.90;99.90
4749;DHT22;2388;53.582;9.962;2023-02-01T00:21:57;5.90;99.90
4749;DHT22;2388;53.582;9.962;2023-02-01T00:24:23;5.90;99.90
4749;DHT22;2388;53.582;9.962;2023-02-01T00:26:48;5.90;99.90
4749;DHT22;2388;53.582;9.962;2023-02-01T00:29:17;6.00;99.90
4749;DHT22;2388;53.582;9.962;2023-02-01T00:31:43;6.00;99.90
4749;DHT22;2388;53.582;9.962;2023-02-01T00:34:11;6.00;99.90
4749;DHT22;2388;53.582;9.962;2023-02-01T00:36:37;6.00;99.90
4749;DHT22;2388;53.582;9.962;2023-02-01T00:39:03;6.00;99.90
4749;DHT22;2388;53.582;9.962;2023-02-01T00:41:28;6.00;99.90
4749;DHT22;2388;53.582;9.962;2023-02-01T00:43:54;6.00;99.90
4749;DHT22;2388;53.582;9.962;2023-02-01T00:46:20;6.00;99.90
4749;DHT22;2388;53.582;9.962;2023-02-01T00:48:47;6.10;99.90
4749;DHT22;2388;53.582;9.962;2023-02-01T00:51:17;6.00;99.90
4749;DHT22;2388;53.582;9.962;2023-02-01T00:53:43;6.10;99.90
4749;DHT22;2388;53.582;9.962;2023-02-01T00:56:09;6.10;99.90
4749;DHT22;2388;53.582;9.962;2023-02-01T00:58:35;6.10;99.90
4749;DHT22;2388;53.582;9.962;2023-02-01T01:01:09;6.20;99.90
4749;DHT22;2388;53.582;9.962;2023-02-01T01:03:36;6.10;99.90
4749;DHT22;2388;53.582;9.962;2023-02-01T01:06:05;6.10;99.90
4749;DHT22;2388;53.582;9.962;2023-02-01T01:08:31;6.10;99.90
4749;DHT22;2388;53.582;9.962;2023-02-01T01:10:57;6.10;99.90
4749;DHT22;2388;53.582;9.962;2023-02-01T01:13:22;6.20;99.90
4749;DHT22;2388;53.582;9.962;2023-02-01T01:15:48;6.20;99.90
4749;DHT22;2388;53.582;9.962;2023-02-01T01:18:13;6.20;99.90
4749;DHT22;2388;53.582;9.962;2023-02-01T01:20:40;6.20;99.90
4749;DHT22;2388;53.582;9.962;2023-02-01T01:23:07;6.20;99.90
4749;DHT22;2388;53.582;9.962;2023-02-01T01:25:32;6.20;99.90
4749;DHT22;2388;53.582;9.962;2023-02-01T01:27:58;6.10;99.90
4749;DHT22;2388;53.582;9.962;2023-02-01T01:30:23;6.20;99.90
4749;DHT22;2388;53.582;9.962;2023-02-01T01:32:49;6.20;99.90
4749;DHT22;2388;53.582;9.962;2023-02-01T01:35:14;6.20;99.90
4749;DHT22;2388;53.582;9.962;2023-02-01T01:37:40;6.20;99.90
4749;DHT22;2388;53.582;9.962;2023-02-01T01:40:08;6.20;99.90
4749;DHT22;2388;53.582;9.962;2023-02-01T01:42:39;6.20;99.90
4749;DHT22;2388;53.582;9.962;2023-02-01T01:45:32;6.20;99.90
4749;DHT22;2388;53.582;9.962;2023-02-01T01:48:02;6.20;99.90
4749;DHT22;2388;53.582;9.962;2023-02-01T01:50:33;6.20;99.90
4749;DHT22;2388;53.582;9.962;2023-02-01T01:53:01;6.20;99.90
4749;DHT22;2388;53.582;9.962;2023-02-01T01:55:31;6.20;99.90
4749;DHT22;2388;53.582;9.962;2023-02-01T01:58:01;6.20;99.90
4749;DHT22;2388;53.582;9.962;2023-02-01T02:00:27;6.20;99.90
4749;DHT22;2388;53.582;9.962;2023-02-01T02:02:58;6.20;99.90
4749;DHT22;2388;53.582;9.962;2023-02-01T02:05:24;6.20;99.90
4749;DHT22;2388;53.582;9.962;2023-02-01T02:07:52;6.20;99.90
4749;DHT22;2388;53.582;9.962;2023-02-01T02:10:19;6.20;99.90
4749;DHT22;2388;53.582;9.962;2023-02-01T02:12:47;6.30;99.90
4749;DHT22;2388;53.582;9.962;2023-02-01T02:15:14;6.30;99.90
4749;DHT22;2388;53.582;9.962;2023-02-01T02:18:08;6.20;99.90
4749;DHT22;2388;53.582;9.962;2023-02-01T02:23:36;6.20;99.90
4749;DHT22;2388;53.582;9.962;2023-02-01T02:34:42;6.10;99.90
4749;DHT22;2388;53.582;9.962;2023-02-01T02:37:31;6.10;99.90
4749;DHT22;2388;53.582;9.962;2023-02-01T02:40:18;6.10;99.90
4749;DHT22;2388;53.582;9.962;2023-02-01T02:42:59;6.10;99.90
4749;DHT22;2388;53.582;9.962;2023-02-01T02:46:01;6.00;99.90
4749;DHT22;2388;53.582;9.962;2023-02-01T02:48:55;6.00;99.90
4749;DHT22;2388;53.582;9.962;2023-02-01T02:54:33;6.00;99.90
4749;DHT22;2388;53.582;9.962;2023-02-01T02:57:21;5.90;99.90
4749;DHT22;2388;53.582;9.962;2023-02-01T03:00:10;6.00;99.90
4749;DHT22;2388;53.582;9.962;2023-02-01T03:02:55;5.90;99.90
4749;DHT22;2388;53.582;9.962;2023-02-01T03:05:42;5.90;99.90
4749;DHT22;2388;53.582;9.962;2023-02-01T03:08:21;5.80;99.90
4749;DHT22;2388;53.582;9.962;2023-02-01T03:10:52;5.80;99.90
4749;DHT22;2388;53.582;9.962;2023-02-01T03:21:41;5.70;99.90
4749;DHT22;2388;53.582;9.962;2023-02-01T03:24:17;5.70;99.90
4749;DHT22;2388;53.582;9.962;2023-02-01T03:26:49;5.60;99.90
4749;DHT22;2388;53.582;9.962;2023-02-01T03:29:20;5.60;99.90
4749;DHT22;2388;53.582;9.962;2023-02-01T03:31:46;5.60;99.90
4749;DHT22;2388;53.582;9.962;2023-02-01T03:34:12;5.50;99.90
4749;DHT22;2388;53.582;9.962;2023-02-01T03:36:52;5.40;99.90
4749;DHT22;2388;53.582;9.962;2023-02-01T03:39:31;5.40;99.90
4749;DHT22;2388;53.582;9.962;2023-02-01T03:42:01;5.50;99.90
4749;DHT22;2388;53.582;9.962;2023-02-01T03:45:47;5.50;99.90
4749;DHT22;2388;53.582;9.962;2023-02-01T03:47:47;5.50;99.90
4749;DHT22;2388;53.582;9.962;2023-02-01T03:50:19;5.40;99.90
4749;DHT22;2388;53.582;9.962;2023-02-01T03:53:04;5.30;99.90
4749;DHT22;2388;53.582;9.962;2023-02-01T03:55:31;5.30;99.90
4749;DHT22;2388;53.582;9.962;2023-02-01T04:00:36;5.30;99.90
4749;DHT22;2388;53.582;9.962;2023-02-01T04:03:03;5.30;99.90
4749;DHT22;2388;53.582;9.962;2023-02-01T04:05:29;5.30;99.90
4749;DHT22;2388;53.582;9.962;2023-02-01T04:07:55;5.20;99.90
4749;DHT22;2388;53.582;9.962;2023-02-01T04:10:21;5.30;99.90
4749;DHT22;2388;53.582;9.962;2023-02-01T04:12:46;5.30;99.90
4749;DHT22;2388;53.582;9.962;2023-02-01T04:15:12;5.30;99.90
4749;DHT22;2388;53.582;9.962;2023-02-01T04:17:37;5.20;99.90
4749;DHT22;2388;53.582;9.962;2023-02-01T04:20:03;5.20;99.90
4749;DHT22;2388;53.582;9.962;2023-02-01T04:22:30;5.20;99.90
4749;DHT22;2388;53.582;9.962;2023-02-01T04:24:55;5.20;99.90
4749;DHT22;2388;53.582;9.962;2023-02-01T04:27:21;5.20;99.90
4749;DHT22;2388;53.582;9.962;2023-02-01T04:29:46;5.20;99.90
4749;DHT22;2388;53.582;9.962;2023-02-01T04:32:12;5.30;99.90
4749;DHT22;2388;53.582;9.962;2023-02-01T04:34:37;5.20;99.90
4749;DHT22;2388;53.582;9.962;2023-02-01T04:37:03;5.20;99.90
4749;DHT22;2388;53.582;9.962;2023-02-01T04:39:28;5.20;99.90
4749;DHT22;2388;53.582;9.962;2023-02-01T04:41:54;5.20;99.90
4749;DHT22;2388;53.582;9.962;2023-02-01T04:44:19;5.20;99.90
4749;DHT22;2388;53.582;9.962;2023-02-01T04:46:47;5.20;99.90
4749;DHT22;2388;53.582;9.962;2023-02-01T04:49:13;5.20;99.90
4749;DHT22;2388;53.582;9.962;2023-02-01T04:51:39;5.20;99.90
4749;DHT22;2388;53.582;9.962;2023-02-01T04:54:05;5.10;99.90
4749;DHT22;2388;53.582;9.962;2023-02-01T04:56:31;5.10;99.90
4749;DHT22;2388;53.582;9.962;2023-02-01T04:58:57;5.10;99.90
4749;DHT22;2388;53.582;9.962;2023-02-01T05:01:23;5.10;99.90
4749;DHT22;2388;53.582;9.962;2023-02-01T05:03:50;5.10;99.90
4749;DHT22;2388;53.582;9.962;2023-02-01T05:06:15;5.10;99.90
4749;DHT22;2388;53.582;9.962;2023-02-01T05:08:41;5.00;99.90
4749;DHT22;2388;53.582;9.962;2023-02-01T05:11:06;5.00;99.90
4749;DHT22;2388;53.582;9.962;2023-02-01T05:13:31;5.00;99.90
4749;DHT22;2388;53.582;9.962;2023-02-01T05:16:16;4.90;99.90
4749;DHT22;2388;53.582;9.962;2023-02-01T05:18:41;4.70;99.90
4749;DHT22;2388;53.582;9.962;2023-02-01T05:21:07;4.70;99.90
4749;DHT22;2388;53.582;9.962;2023-02-01T05:23:32;4.60;99.90
4749;DHT22;2388;53.582;9.962;2023-02-01T05:26:18;4.50;99.90
4749;DHT22;2388;53.582;9.962;2023-02-01T05:28:43;4.40;99.90
4749;DHT22;2388;53.582;9.962;2023-02-01T05:31:10;4.30;99.90
4749;DHT22;2388;53.582;9.962;2023-02-01T05:33:35;4.20;99.90
4749;DHT22;2388;53.582;9.962;2023-02-01T05:36:01;4.20;99.90
4749;DHT22;2388;53.582;9.962;2023-02-01T05:38:26;4.20;99.90
4749;DHT22;2388;53.582;9.962;2023-02-01T05:40:52;4.10;99.90
4749;DHT22;2388;53.582;9.962;2023-02-01T05:43:17;4.20;99.90
4749;DHT22;2388;53.582;9.962;2023-02-01T05:45:42;4.20;99.90
4749;DHT22;2388;53.582;9.962;2023-02-01T05:48:08;4.20;99.90
4749;DHT22;2388;53.582;9.962;2023-02-01T05:50:33;4.20;99.90
4749;DHT22;2388;53.582;9.962;2023-02-01T05:52:59;4.20;99.90
4749;DHT22;2388;53.582;9.962;2023-02-01T05:55:24;4.20;99.90
4749;DHT22;2388;53.582;9.962;2023-02-01T05:57:50;4.10;99.90
4749;DHT22;2388;53.582;9.962;2023-02-01T06:00:16;4.10;99.90
4749;DHT22;2388;53.582;9.962;2023-02-01T06:02:41;4.00;99.90
4749;DHT22;2388;53.582;9.962;2023-02-01T06:05:07;4.00;99.90
4749;DHT22;2388;53.582;9.962;2023-02-01T06:07:33;4.00;99.90
4749;DHT22;2388;53.582;9.962;2023-02-01T06:09:58;4.00;99.90
4749;DHT22;2388;53.582;9.962;2023-02-01T06:12:24;4.00;99.90
4749;DHT22;2388;53.582;9.962;2023-02-01T06:14:49;3.90;99.90
4749;DHT22;2388;53.582;9.962;2023-02-01T06:17:15;4.00;99.90
4749;DHT22;2388;53.582;9.962;2023-02-01T06:19:40;4.00;99.90
4749;DHT22;2388;53.582;9.962;2023-02-01T06:22:06;4.10;99.90
4749;DHT22;2388;53.582;9.962;2023-02-01T06:24:32;4.10;99.90
4749;DHT22;2388;53.582;9.962;2023-02-01T06:26:57;4.10;99.90
4749;DHT22;2388;53.582;9.962;2023-02-01T06:29:22;4.10;99.90
4749;DHT22;2388;53.582;9.962;2023-02-01T06:31:48;4.10;99.90
4749;DHT22;2388;53.582;9.962;2023-02-01T06:34:13;4.10;99.90
4749;DHT22;2388;53.582;9.962;2023-02-01T06:36:39;4.20;99.90
4749;DHT22;2388;53.582;9.962;2023-02-01T06:39:05;4.30;99.90
4749;DHT22;2388;53.582;9.962;2023-02-01T06:41:30;4.30;99.90
4749;DHT22;2388;53.582;9.962;2023-02-01T06:43:56;4.30;99.90
4749;DHT22;2388;53.582;9.962;2023-02-01T06:46:21;4.30;99.90
4749;DHT22;2388;53.582;9.962;2023-02-01T06:48:47;4.40;99.90
4749;DHT22;2388;53.582;9.962;2023-02-01T06:51:19;4.40;99.90
4749;DHT22;2388;53.582;9.962;2023-02-01T06:53:45;4.40;99.90
4749;DHT22;2388;53.582;9.962;2023-02-01T06:56:11;4.50;99.90
4749;DHT22;2388;53.582;9.962;2023-02-01T06:58:36;4.60;99.90
4749;DHT22;2388;53.582;9.962;2023-02-01T07:01:06;4.60;99.90
4749;DHT22;2388;53.582;9.962;2023-02-01T07:03:32;4.60;99.90
4749;DHT22;2388;53.582;9.962;2023-02-01T07:05:57;4.60;99.90
4749;DHT22;2388;53.582;9.962;2023-02-01T07:08:30;4.60;99.90
4749;DHT22;2388;53.582;9.962;2023-02-01T07:10:56;4.60;99.90
4749;DHT22;2388;53.582;9.962;2023-02-01T07:13:21;4.60;99.90
4749;DHT22;2388;53.582;9.962;2023-02-01T07:15:47;4.50;99.90
4749;DHT22;2388;53.582;9.962;2023-02-01T07:18:13;4.50;99.90
4749;DHT22;2388;53.582;9.962;2023-02-01T07:20:39;4.60;99.90
4749;DHT22;2388;53.582;9.962;2023-02-01T07:23:05;4.70;99.90
4749;DHT22;2388;53.582;9.962;2023-02-01T07:25:30;4.70;99.90
4749;DHT22;2388;53.582;9.962;2023-02-01T07:27:56;4.80;99.90
4749;DHT22;2388;53.582;9.962;2023-02-01T07:30:22;4.90;99.90
4749;DHT22;2388;53.582;9.962;2023-02-01T07:32:47;4.90;99.90
4749;DHT22;2388;53.582;9.962;2023-02-01T07:35:13;5.00;99.90
4749;DHT22;2388;53.582;9.962;2023-02-01T07:37:39;5.00;99.90
4749;DHT22;2388;53.582;9.962;2023-02-01T07:40:05;5.00;99.90
4749;DHT22;2388;53.582;9.962;2023-02-01T07:42:31;5.00;99.90
4749;DHT22;2388;53.582;9.962;2023-02-01T07:44:56;5.00;99.90
4749;DHT22;2388;53.582;9.962;2023-02-01T07:47:22;5.10;99.90
4749;DHT22;2388;53.582;9.962;2023-02-01T07:49:48;5.20;99.90
4749;DHT22;2388;53.582;9.962;2023-02-01T07:52:13;5.20;99.90
4749;DHT22;2388;53.582;9.962;2023-02-01T07:54:41;5.30;99.90
4749;DHT22;2388;53.582;9.962;2023-02-01T07:57:06;5.30;99.90
4749;DHT22;2388;53.582;9.962;2023-02-01T07:59:34;5.40;99.90
4749;DHT22;2388;53.582;9.962;2023-02-01T08:01:59;5.40;99.90
4749;DHT22;2388;53.582;9.962;2023-02-01T08:04:25;5.40;99.90
4749;DHT22;2388;53.582;9.962;2023-02-01T08:06:50;5.50;99.90
4749;DHT22;2388;53.582;9.962;2023-02-01T08:09:15;5.50;99.90
4749;DHT22;2388;53.582;9.962;2023-02-01T08:11:41;5.50;99.90
4749;DHT22;2388;53.582;9.962;2023-02-01T08:14:07;5.60;99.90
4749;DHT22;2388;53.582;9.962;2023-02-01T08:16:33;5.60;99.90
4749;DHT22;2388;53.582;9.962;2023-02-01T08:19:00;5.60;99.90
4749;DHT22;2388;53.582;9.962;2023-02-01T08:21:29;5.70;99.90
4749;DHT22;2388;53.582;9.962;2023-02-01T08:24:05;5.80;99.90
4749;DHT22;2388;53.582;9.962;2023-02-01T08:26:31;5.80;99.90
4749;DHT22;2388;53.582;9.962;2023-02-01T08:28:59;5.80;99.90
4749;DHT22;2388;53.582;9.962;2023-02-01T08:31:26;5.80;99.90
4749;DHT22;2388;53.582;9.962;2023-02-01T08:33:54;5.90;99.90
4749;DHT22;2388;53.582;9.962;2023-02-01T08:36:21;5.90;99.90
4749;DHT22;2388;53.582;9.962;2023-02-01T08:38:47;6.00;99.90
4749;DHT22;2388;53.582;9.962;2023-02-01T08:41:16;6.00;99.90
4749;DHT22;2388;53.582;9.962;2023-02-01T08:43:42;6.00;99.90
4749;DHT22;2388;53.582;9.962;2023-02-01T08:46:08;6.00;99.90
4749;DHT22;2388;53.582;9.962;2023-02-01T08:48:34;6.10;99.90
4749;DHT22;2388;53.582;9.962;2023-02-01T08:51:04;6.10;99.90
4749;DHT22;2388;53.582;9.962;2023-02-01T08:53:30;6.10;99.90
4749;DHT22;2388;53.582;9.962;2023-02-01T08:55:55;6.00;99.90
4749;DHT22;2388;53.582;9.962;2023-02-01T08:58:21;6.00;99.90
4749;DHT22;2388;53.582;9.962;2023-02-01T09:00:47;6.10;99.90
4749;DHT22;2388;53.582;9.962;2023-02-01T09:03:16;6.20;99.90
4749;DHT22;2388;53.582;9.962;2023-02-01T09:05:41;6.30;99.90
4749;DHT22;2388;53.582;9.962;2023-02-01T09:08:07;6.30;99.90
4749;DHT22;2388;53.582;9.962;2023-02-01T09:10:34;6.30;99.90
4749;DHT22;2388;53.582;9.962;2023-02-01T09:12:59;6.40;99.90
4749;DHT22;2388;53.582;9.962;2023-02-01T09:15:25;6.40;99.90
4749;DHT22;2388;53.582;9.962;2023-02-01T09:17:50;6.30;99.90
4749;DHT22;2388;53.582;9.962;2023-02-01T09:20:16;6.30;99.90
4749;DHT22;2388;53.582;9.962;2023-02-01T09:22:41;6.20;99.90
4749;DHT22;2388;53.582;9.962;2023-02-01T09:25:08;6.20;99.90
4749;DHT22;2388;53.582;9.962;2023-02-01T09:27:34;6.20;99.90
4749;DHT22;2388;53.582;9.962;2023-02-01T09:29:59;6.20;99.90
4749;DHT22;2388;53.582;9.962;2023-02-01T09:32:25;6.20;99.90
4749;DHT22;2388;53.582;9.962;2023-02-01T09:34:52;6.20;99.90
4749;DHT22;2388;53.582;9.962;2023-02-01T09:37:17;6.30;99.90
4749;DHT22;2388;53.582;9.962;2023-02-01T09:39:43;6.30;99.90
4749;DHT22;2388;53.582;9.962;2023-02-01T09:45:11;6.40;99.90
4749;DHT22;2388;53.582;9.962;2023-02-01T09:47:45;6.50;99.90
4749;DHT22;2388;53.582;9.962;2023-02-01T09:50:15;6.60;99.90
4749;DHT22;2388;53.582;9.962;2023-02-01T09:52:48;6.60;99.90
4749;DHT22;2388;53.582;9.962;2023-02-01T09:55:41;6.60;99.90
4749;DHT22;2388;53.582;9.962;2023-02-01T10:00:41;6.60;99.90
4749;DHT22;2388;53.582;9.962;2023-02-01T10:03:12;6.50;99.90
4749;DHT22;2388;53.582;9.962;2023-02-01T10:06:57;6.40;99.90
4749;DHT22;2388;53.582;9.962;2023-02-01T10:12:06;6.70;99.90
4749;DHT22;2388;53.582;9.962;2023-02-01T10:14:59;6.70;99.90
4749;DHT22;2388;53.582;9.962;2023-02-01T10:23:19;6.70;99.90
4749;DHT22;2388;53.582;9.962;2023-02-01T10:25:54;6.70;99.90
4749;DHT22;2388;53.582;9.962;2023-02-01T10:28:21;6.70;99.90
4749;DHT22;2388;53.582;9.962;2023-02-01T10:30:48;6.80;99.90
4749;DHT22;2388;53.582;9.962;2023-02-01T10:33:41;6.70;99.90
4749;DHT22;2388;53.582;9.962;2023-02-01T10:36:16;6.60;99.90
4749;DHT22;2388;53.582;9.962;2023-02-01T10:38:43;6.60;99.90
4749;DHT22;2388;53.582;9.962;2023-02-01T10:41:17;6.50;99.90
4749;DHT22;2388;53.582;9.962;2023-02-01T10:43:44;6.50;99.90
4749;DHT22;2388;53.582;9.962;2023-02-01T10:46:12;6.40;99.90
4749;DHT22;2388;53.582;9.962;2023-02-01T10:48:38;6.40;99.90
4749;DHT22;2388;53.582;9.962;2023-02-01T10:51:21;6.40;99.90
4749;DHT22;2388;53.582;9.962;2023-02-01T10:53:53;6.40;99.90
4749;DHT22;2388;53.582;9.962;2023-02-01T10:56:27;6.30;99.90
4749;DHT22;2388;53.582;9.962;2023-02-01T10:59:02;6.40;99.90
4749;DHT22;2388;53.582;9.962;2023-02-01T11:01:34;6.30;99.90
4749;DHT22;2388;53.582;9.962;2023-02-01T11:04:02;6.20;99.90
4749;DHT22;2388;53.582;9.962;2023-02-01T11:06:44;6.10;99.90
4749;DHT22;2388;53.582;9.962;2023-02-01T11:09:22;6.10;99.90
4749;DHT22;2388;53.582;9.962;2023-02-01T11:11:57;6.00;99.90
4749;DHT22;2388;53.582;9.962;2023-02-01T11:14:37;6.10;99.90
4749;DHT22;2388;53.582;9.962;2023-02-01T11:17:21;6.10;99.90
4749;DHT22;2388;53.582;9.962;2023-02-01T11:19:58;6.10;99.90
4749;DHT22;2388;53.582;9.962;2023-02-01T11:22:25;6.10;99.90
4749;DHT22;2388;53.582;9.962;2023-02-01T11:24:52;6.20;99.90
4749;DHT22;2388;53.582;9.962;2023-02-01T11:27:21;6.20;99.90
4749;DHT22;2388;53.582;9.962;2023-02-01T11:29:51;6.20;99.90
4749;DHT22;2388;53.582;9.962;2023-02-01T11:32:18;6.20;99.90
4749;DHT22;2388;53.582;9.962;2023-02-01T11:34:47;6.30;99.90
4749;DHT22;2388;53.582;9.962;2023-02-01T11:37:24;6.30;99.90
4749;DHT22;2388;53.582;9.962;2023-02-01T11:42:20;6.30;99.90
4749;DHT22;2388;53.582;9.962;2023-02-01T11:44:47;6.30;99.90
4749;DHT22;2388;53.582;9.962;2023-02-01T11:47:25;6.30;99.90
4749;DHT22;2388;53.582;9.962;2023-02-01T11:50:05;6.30;99.90
4749;DHT22;2388;53.582;9.962;2023-02-01T11:52:57;6.30;99.90
4749;DHT22;2388;53.582;9.962;2023-02-01T11:55:42;6.30;99.90
4749;DHT22;2388;53.582;9.962;2023-02-01T11:58:31;6.30;99.90
4749;DHT22;2388;53.582;9.962;2023-02-01T12:03:52;6.10;99.90
4749;DHT22;2388;53.582;9.962;2023-02-01T12:06:44;6.10;99.90
4749;DHT22;2388;53.582;9.962;2023-02-01T12:12:22;6.00;99.90
4749;DHT22;2388;53.582;9.962;2023-02-01T12:15:27;6.00;99.90
4749;DHT22;2388;53.582;9.962;2023-02-01T12:18:26;5.90;99.90
4749;DHT22;2388;53.582;9.962;2023-02-01T12:24:26;5.80;99.90
4749;DHT22;2388;53.582;9.962;2023-02-01T12:27:01;5.80;99.90
4749;DHT22;2388;53.582;9.962;2023-02-01T12:29:55;6.70;99.90
4749;DHT22;2388;53.582;9.962;2023-02-01T12:32:52;5.70;99.90
4749;DHT22;2388;53.582;9.962;2023-02-01T12:36:25;5.70;99.90
4749;DHT22;2388;53.582;9.962;2023-02-01T12:38:45;5.80;99.90
4749;DHT22;2388;53.582;9.962;2023-02-01T12:43:54;5.60;99.90
4749;DHT22;2388;53.582;9.962;2023-02-01T12:46:40;5.50;99.90
4749;DHT22;2388;53.582;9.962;2023-02-01T12:49:16;5.40;99.90
4749;DHT22;2388;53.582;9.962;2023-02-01T12:51:45;5.40;99.90
4749;DHT22;2388;53.582;9.962;2023-02-01T12:54:19;5.30;99.90
4749;DHT22;2388;53.582;9.962;2023-02-01T12:56:53;5.30;99.90
4749;DHT22;2388;53.582;9.962;2023-02-01T12:59:26;5.30;99.90
4749;DHT22;2388;53.582;9.962;2023-02-01T13:01:59;5.30;99.90
4749;DHT22;2388;53.582;9.962;2023-02-01T13:04:34;5.30;99.90
4749;DHT22;2388;53.582;9.962;2023-02-01T13:07:07;5.20;99.90
4749;DHT22;2388;53.582;9.962;2023-02-01T13:09:52;5.20;99.90
4749;DHT22;2388;53.582;9.962;2023-02-01T13:12:24;5.20;99.90
4749;DHT22;2388;53.582;9.962;2023-02-01T13:14:57;5.30;99.90
4749;DHT22;2388;53.582;9.962;2023-02-01T13:17:26;5.20;99.90
4749;DHT22;2388;53.582;9.962;2023-02-01T13:19:59;5.00;99.90
4749;DHT22;2388;53.582;9.962;2023-02-01T13:22:34;5.20;99.90
4749;DHT22;2388;53.582;9.962;2023-02-01T13:25:04;5.40;99.90
4749;DHT22;2388;53.582;9.962;2023-02-01T13:27:31;5.60;99.90
4749;DHT22;2388;53.582;9.962;2023-02-01T13:30:01;5.70;99.90
4749;DHT22;2388;53.582;9.962;2023-02-01T13:33:11;5.60;99.90
4749;DHT22;2388;53.582;9.962;2023-02-01T13:39:14;5.70;99.90
4749;DHT22;2388;53.582;9.962;2023-02-01T13:42:22;5.80;99.90
4749;DHT22;2388;53.582;9.962;2023-02-01T13:44:57;5.80;99.90
4749;DHT22;2388;53.582;9.962;2023-02-01T13:47:31;5.70;99.90
4749;DHT22;2388;53.582;9.962;2023-02-01T13:50:04;5.60;99.90
4749;DHT22;2388;53.582;9.962;2023-02-01T13:52:43;5.60;99.90
4749;DHT22;2388;53.582;9.962;2023-02-01T13:57:40;5.50;99.90
4749;DHT22;2388;53.582;9.962;2023-02-01T14:00:28;5.50;99.90
4749;DHT22;2388;53.582;9.962;2023-02-01T14:08:23;5.50;99.90
4749;DHT22;2388;53.582;9.962;2023-02-01T14:10:59;5.40;99.90
4749;DHT22;2388;53.582;9.962;2023-02-01T14:21:18;5.90;99.90
4749;DHT22;2388;53.582;9.962;2023-02-01T14:23:46;6.00;99.90
4749;DHT22;2388;53.582;9.962;2023-02-01T14:26:18;6.00;99.90
4749;DHT22;2388;53.582;9.962;2023-02-01T14:28:50;6.10;99.90
4749;DHT22;2388;53.582;9.962;2023-02-01T14:31:32;6.10;99.90
4749;DHT22;2388;53.582;9.962;2023-02-01T14:34:02;6.00;99.90
4749;DHT22;2388;53.582;9.962;2023-02-01T14:36:41;5.90;99.90
4749;DHT22;2388;53.582;9.962;2023-02-01T14:39:34;5.90;99.90
4749;DHT22;2388;53.582;9.962;2023-02-01T14:44:51;5.80;99.90
4749;DHT22;2388;53.582;9.962;2023-02-01T14:49:58;5.70;99.90
4749;DHT22;2388;53.582;9.962;2023-02-01T14:52:37;5.70;99.90
4749;DHT22;2388;53.582;9.962;2023-02-01T14:55:13;5.70;99.90
4749;DHT22;2388;53.582;9.962;2023-02-01T14:57:43;5.70;99.90
4749;DHT22;2388;53.582;9.962;2023-02-01T15:00:46;5.60;99.90
4749;DHT22;2388;53.582;9.962;2023-02-01T15:04:38;5.60;99.90
4749;DHT22;2388;53.582;9.962;2023-02-01T15:09:08;5.70;99.90
4749;DHT22;2388;53.582;9.962;2023-02-01T15:12:15;5.70;99.90
4749;DHT22;2388;53.582;9.962;2023-02-01T15:17:20;5.50;99.90
4749;DHT22;2388;53.582;9.962;2023-02-01T15:19:58;5.50;99.90
4749;DHT22;2388;53.582;9.962;2023-02-01T15:22:28;5.60;99.90
4749;DHT22;2388;53.582;9.962;2023-02-01T15:24:59;5.50;99.90
4749;DHT22;2388;53.582;9.962;2023-02-01T15:27:26;5.50;99.90
4749;DHT22;2388;53.582;9.962;2023-02-01T15:29:52;5.40;99.90
4749;DHT22;2388;53.582;9.962;2023-02-01T15:32:38;5.40;99.90
4749;DHT22;2388;53.582;9.962;2023-02-01T15:35:05;5.40;99.90
4749;DHT22;2388;53.582;9.962;2023-02-01T15:37:50;5.30;99.90
4749;DHT22;2388;53.582;9.962;2023-02-01T15:40:20;5.30;99.90
4749;DHT22;2388;53.582;9.962;2023-02-01T15:42:52;5.30;99.90
4749;DHT22;2388;53.582;9.962;2023-02-01T15:45:21;5.30;99.90
4749;DHT22;2388;53.582;9.962;2023-02-01T15:47:48;5.40;99.90
4749;DHT22;2388;53.582;9.962;2023-02-01T15:50:17;5.40;99.90
4749;DHT22;2388;53.582;9.962;2023-02-01T15:52:47;5.40;99.90
4749;DHT22;2388;53.582;9.962;2023-02-01T15:57:57;5.40;99.90
4749;DHT22;2388;53.582;9.962;2023-02-01T16:00:26;5.40;99.90
4749;DHT22;2388;53.582;9.962;2023-02-01T16:03:15;5.40;99.90
4749;DHT22;2388;53.582;9.962;2023-02-01T16:05:57;5.50;99.90
4749;DHT22;2388;53.582;9.962;2023-02-01T16:08:26;5.50;99.90
4749;DHT22;2388;53.582;9.962;2023-02-01T16:11:02;5.50;99.90
4749;DHT22;2388;53.582;9.962;2023-02-01T16:13:39;5.40;99.90
4749;DHT22;2388;53.582;9.962;2023-02-01T16:16:07;5.40;99.90
4749;DHT22;2388;53.582;9.962;2023-02-01T16:18:39;5.50;99.90
4749;DHT22;2388;53.582;9.962;2023-02-01T16:21:05;5.50;99.90
4749;DHT22;2388;53.582;9.962;2023-02-01T16:23:33;5.50;99.90
4749;DHT22;2388;53.582;9.962;2023-02-01T16:25:58;5.50;99.90
4749;DHT22;2388;53.582;9.962;2023-02-01T16:28:24;5.40;99.90
4749;DHT22;2388;53.582;9.962;2023-02-01T16:30:50;5.50;99.90
4749;DHT22;2388;53.582;9.962;2023-02-01T16:33:18;5.40;99.90
4749;DHT22;2388;53.582;9.962;2023-02-01T16:35:45;5.30;99.90
4749;DHT22;2388;53.582;9.962;2023-02-01T16:38:13;5.40;99.90
4749;DHT22;2388;53.582;9.962;2023-02-01T16:40:40;5.50;99.90
4749;DHT22;2388;53.582;9.962;2023-02-01T16:43:17;5.50;99.90
4749;DHT22;2388;53.582;9.962;2023-02-01T16:45:44;5.50;99.90
4749;DHT22;2388;53.582;9.962;2023-02-01T16:48:22;5.60;99.90
4749;DHT22;2388;53.582;9.962;2023-02-01T16:50:54;5.60;99.90
4749;DHT22;2388;53.582;9.962;2023-02-01T16:53:21;5.60;99.90
4749;DHT22;2388;53.582;9.962;2023-02-01T16:55:47;5.70;99.90
4749;DHT22;2388;53.582;9.962;2023-02-01T16:58:18;5.70;99.90
4749;DHT22;2388;53.582;9.962;2023-02-01T17:00:44;5.70;99.90
4749;DHT22;2388;53.582;9.962;2023-02-01T17:03:11;5.70;99.90
4749;DHT22;2388;53.582;9.962;2023-02-01T17:05:45;5.80;99.90
4749;DHT22;2388;53.582;9.962;2023-02-01T17:08:15;5.80;99.90
4749;DHT22;2388;53.582;9.962;2023-02-01T17:10:44;5.80;99.90
4749;DHT22;2388;53.582;9.962;2023-02-01T17:13:13;5.90;99.90
4749;DHT22;2388;53.582;9.962;2023-02-01T17:15:39;6.00;99.90
4749;DHT22;2388;53.582;9.962;2023-02-01T17:18:05;6.10;99.90
4749;DHT22;2388;53.582;9.962;2023-02-01T17:20:33;6.10;99.90
4749;DHT22;2388;53.582;9.962;2023-02-01T17:22:59;6.10;99.90
4749;DHT22;2388;53.582;9.962;2023-02-01T17:25:25;6.10;99.90
4749;DHT22;2388;53.582;9.962;2023-02-01T17:27:51;6.10;99.90
4749;DHT22;2388;53.582;9.962;2023-02-01T17:30:17;6.00;99.90
4749;DHT22;2388;53.582;9.962;2023-02-01T17:32:43;6.10;99.90
4749;DHT22;2388;53.582;9.962;2023-02-01T17:35:21;6.10;99.90
4749;DHT22;2388;53.582;9.962;2023-02-01T17:37:48;6.10;99.90
4749;DHT22;2388;53.582;9.962;2023-02-01T17:40:15;6.10;99.90
4749;DHT22;2388;53.582;9.962;2023-02-01T17:42:40;6.10;99.90
4749;DHT22;2388;53.582;9.962;2023-02-01T17:45:39;6.10;99.90
4749;DHT22;2388;53.582;9.962;2023-02-01T17:48:07;6.10;99.90
4749;DHT22;2388;53.582;9.962;2023-02-01T17:50:35;6.10;99.90
4749;DHT22;2388;53.582;9.962;2023-02-01T17:53:01;6.10;99.90
4749;DHT22;2388;53.582;9.962;2023-02-01T17:55:28;6.10;99.90
4749;DHT22;2388;53.582;9.962;2023-02-01T17:57:53;6.10;99.90
4749;DHT22;2388;53.582;9.962;2023-02-01T18:00:20;6.10;99.90
4749;DHT22;2388;53.582;9.962;2023-02-01T18:02:46;6.10;99.90
4749;DHT22;2388;53.582;9.962;2023-02-01T18:05:36;6.10;99.90
4749;DHT22;2388;53.582;9.962;2023-02-01T18:08:02;6.10;99.90
4749;DHT22;2388;53.582;9.962;2023-02-01T18:10:28;6.10;99.90